Time;durP1;ratioP1;P1;durP2;ratioP2;P2;SDS_P1;SDS_P2;PMS_P1;PMS_P2;Temp;Humidity;BMP_temperature;BMP_pressure;BME280_temperature;BME280_humidity;BME280_pressure;Samples;Min_cycle;Max_cycle;Signal;HPM_P1;HPM_P2
2024/03/13 00:05:42;;;;;;;26.50;17.10;;;;;;;5.92;100.00;98337.95;436245;1248;108000;-40
2024/03/13 00:15:49;;;;;;;29.80;18.00;;;;;;;5.90;100.00;98334.06;436361;1251;97967;-39
2024/03/13 00:46:12;;;;;;;26.00;16.30;;;;;;;5.82;100.00;98330.71;436587;1247;110771;-40
2024/03/13 00:56:21;;;;;;;25.50;16.90;;;;;;;5.82;100.00;98344.88;436268;1247;107283;-40
2024/03/13 01:26:40;;;;;;;31.90;19.80;;;;;;;5.80;100.00;98342.35;436428;1251;98569;-39
2024/03/13 02:08:04;;;;;;;38.40;21.80;;;;;;;5.76;100.00;98346.39;436369;1251;108515;-40
2024/03/13 02:28:32;;;;;;;45.50;24.20;;;;;;;5.79;100.00;98340.02;436306;1247;111131;-40
2024/03/13 02:38:37;;;;;;;47.10;25.90;;;;;;;5.80;100.00;98341.94;438244;1247;108109;-40
2024/03/13 02:48:41;;;;;;;48.80;25.70;;;;;;;5.81;100.00;98342.80;437704;1250;98824;-40
2024/03/13 02:58:48;;;;;;;51.90;27.40;;;;;;;5.81;100.00;98348.67;437322;1248;109572;-39
2024/03/13 03:08:55;;;;;;;65.10;30.90;;;;;;;5.77;100.00;98350.79;437808;1248;99327;-40
2024/03/13 03:18:59;;;;;;;65.40;30.00;;;;;;;5.80;100.00;98349.70;437632;1250;109732;-40
2024/03/13 03:29:04;;;;;;;61.20;30.90;;;;;;;5.80;100.00;98352.60;437645;1248;107963;-40
2024/03/13 03:49:12;;;;;;;60.70;28.40;;;;;;;5.78;100.00;98366.17;438093;1248;107650;-39
2024/03/13 03:59:17;;;;;;;66.30;30.60;;;;;;;5.77;100.00;98367.14;438194;1247;99221;-38
2024/03/13 04:09:21;;;;;;;67.10;30.50;;;;;;;5.75;100.00;98374.38;437599;1248;112301;-38
2024/03/13 04:19:26;;;;;;;64.10;31.50;;;;;;;5.75;100.00;98376.35;437447;1255;108574;-40
2024/03/13 04:29:31;;;;;;;70.80;32.50;;;;;;;5.76;100.00;98380.55;437314;1251;494010;-40
2024/03/13 04:39:47;;;;;;;59.90;30.90;;;;;;;5.73;100.00;98387.21;437555;1260;108137;-39
2024/03/13 04:49:52;;;;;;;61.90;29.50;;;;;;;5.72;100.00;98389.00;437752;1250;99295;-40
2024/03/13 04:59:56;;;;;;;67.40;28.70;;;;;;;5.70;100.00;98395.09;437806;1251;111677;-39
2024/03/13 05:10:01;;;;;;;80.50;36.10;;;;;;;5.74;100.00;98402.10;437412;1248;107917;-39
2024/03/13 05:30:11;;;;;;;80.70;37.70;;;;;;;5.74;100.00;98419.82;437512;1248;106126;-38
2024/03/13 05:50:22;;;;;;;89.00;37.80;;;;;;;5.78;100.00;98437.57;437487;1248;111261;-40
2024/03/13 06:00:27;;;;;;;83.30;37.10;;;;;;;5.76;100.00;98447.30;437462;1248;108788;-39
2024/03/13 06:10:31;;;;;;;87.60;37.50;;;;;;;5.77;100.00;98449.84;437510;1248;97982;-38
2024/03/13 06:30:38;;;;;;;93.00;39.50;;;;;;;5.70;100.00;98471.73;437406;1250;99196;-40
2024/03/13 06:40:43;;;;;;;94.80;41.60;;;;;;;5.70;100.00;98472.48;437017;1250;111184;-39
2024/03/13 06:50:48;;;;;;;83.90;40.90;;;;;;;5.70;100.00;98482.27;437067;1246;109548;-39
2024/03/13 07:00:53;;;;;;;86.30;39.20;;;;;;;5.71;100.00;98491.42;437166;1248;97987;-39
2024/03/13 07:10:59;;;;;;;86.10;36.50;;;;;;;5.81;100.00;98499.77;437071;1250;107778;-39
2024/03/13 07:21:03;;;;;;;87.00;41.10;;;;;;;5.83;100.00;98506.02;437270;1248;99208;-39
2024/03/13 07:51:16;;;;;;;82.10;33.20;;;;;;;5.82;100.00;98509.49;438197;1252;99295;-37
2024/03/13 08:01:22;;;;;;;70.60;31.20;;;;;;;5.89;100.00;98520.36;438633;1250;108606;-39
2024/03/13 08:11:27;;;;;;;83.00;35.10;;;;;;;5.95;100.00;98524.08;438041;1250;99253;-38
2024/03/13 08:21:50;;;;;;;84.00;35.80;;;;;;;6.00;100.00;98528.06;437638;1250;112023;-39
2024/03/13 08:32:12;;;;;;;68.10;31.30;;;;;;;6.08;100.00;98531.04;437827;1260;106981;-42
2024/03/13 09:23:44;;;;;;;66.40;34.10;;;;;;;6.78;100.00;98572.66;437405;1253;107399;-39
2024/03/13 09:33:48;;;;;;;56.50;27.30;;;;;;;6.65;100.00;98585.55;437129;1250;99208;-38
2024/03/13 09:43:53;;;;;;;51.10;24.70;;;;;;;6.62;100.00;98592.63;437705;1247;108246;-38
2024/03/13 09:53:58;;;;;;;51.70;26.90;;;;;;;6.77;100.00;98601.49;437975;1248;98654;-39
2024/03/13 10:04:10;;;;;;;55.80;27.80;;;;;;;7.10;100.00;98604.92;437465;1246;112624;-39
2024/03/13 10:14:16;;;;;;;62.00;29.20;;;;;;;7.29;100.00;98609.33;438809;1248;107698;-39
2024/03/13 10:34:24;;;;;;;60.60;29.80;;;;;;;7.28;100.00;98616.02;437459;1253;107682;-39
2024/03/13 10:44:29;;;;;;;64.20;30.80;;;;;;;7.48;100.00;98620.67;437608;1250;99369;-38
2024/03/13 11:04:39;;;;;;;77.20;34.10;;;;;;;7.69;100.00;98623.68;437799;1250;108458;-39
2024/03/13 11:14:45;;;;;;;63.90;31.60;;;;;;;7.68;100.00;98619.44;437951;1251;99261;-39
2024/03/13 11:24:50;;;;;;;60.00;30.40;;;;;;;7.89;100.00;98616.64;437457;1250;107531;-39
2024/03/13 11:45:10;;;;;;;61.00;32.90;;;;;;;8.54;100.00;98601.54;437482;1248;112796;-40
2024/03/13 12:15:42;;;;;;;55.80;26.00;;;;;;;9.37;100.00;98587.76;437456;1250;107905;-39
2024/03/13 12:25:46;;;;;;;39.20;22.50;;;;;;;9.41;100.00;98588.27;437464;1248;98031;-39
2024/03/13 12:35:56;;;;;;;41.60;22.50;;;;;;;9.65;99.92;98578.73;437444;1250;113377;-40
2024/03/13 13:16:12;;;;;;;48.60;23.80;;;;;;;10.00;95.84;98577.66;437495;1249;99260;-39
2024/03/13 13:26:16;;;;;;;36.90;22.20;;;;;;;10.28;95.01;98574.52;437478;1253;111442;-39
2024/03/13 13:36:22;;;;;;;38.60;21.10;;;;;;;10.23;93.82;98571.22;437554;1250;106533;-40
2024/03/13 13:46:34;;;;;;;43.00;23.20;;;;;;;10.07;93.22;98573.73;437523;1251;99198;-39
2024/03/13 14:06:43;;;;;;;38.70;23.00;;;;;;;10.00;91.59;98580.86;437468;1248;99205;-40
2024/03/13 14:16:47;;;;;;;38.20;21.30;;;;;;;9.77;90.21;98590.15;437472;1250;110659;-39
2024/03/13 14:26:53;;;;;;;37.70;21.10;;;;;;;9.74;90.15;98583.54;438187;1248;109346;-40
2024/03/13 14:36:59;;;;;;;49.40;25.00;;;;;;;9.68;89.18;98587.15;438211;1261;99231;-39
2024/03/13 14:47:03;;;;;;;48.50;28.10;;;;;;;9.39;88.68;98585.66;437539;1250;108076;-40
2024/03/13 14:57:08;;;;;;;54.50;31.30;;;;;;;9.15;89.32;98590.02;437455;1248;99224;-39
2024/03/13 15:07:13;;;;;;;53.10;27.50;;;;;;;8.94;89.51;98599.55;437962;1248;111256;-39
2024/03/13 15:17:18;;;;;;;44.20;25.40;;;;;;;8.73;89.50;98606.46;438118;1250;106737;-39
2024/03/13 15:27:22;;;;;;;50.80;27.30;;;;;;;8.60;89.40;98609.75;438672;1254;99301;-39
2024/03/13 15:37:27;;;;;;;50.70;27.60;;;;;;;8.47;89.77;98602.81;438187;1250;107798;-40
2024/03/13 15:47:30;;;;;;;55.90;27.00;;;;;;;8.34;90.10;98608.52;437788;1248;98662;-39
2024/03/13 16:07:41;;;;;;;52.70;29.10;;;;;;;7.93;89.79;98619.60;438308;1250;107426;-39
2024/03/13 16:17:46;;;;;;;92.80;47.80;;;;;;;7.73;89.91;98624.02;438151;1247;98784;-40
2024/03/13 16:37:54;;;;;;;102.10;50.50;;;;;;;7.08;90.35;98629.13;438406;1250;97966;-40
2024/03/13 16:47:59;;;;;;;81.60;41.00;;;;;;;6.64;90.46;98634.75;437762;1248;111133;-38
2024/03/13 17:18:12;;;;;;;123.40;47.00;;;;;;;5.69;90.62;98660.40;437833;1250;112666;-38
2024/03/13 17:28:18;;;;;;;129.70;56.30;;;;;;;5.44;91.21;98664.88;437550;1250;107786;-39
2024/03/13 17:38:22;;;;;;;130.60;60.30;;;;;;;5.14;91.32;98668.88;437484;1250;99256;-39
2024/03/13 17:48:27;;;;;;;99.50;48.20;;;;;;;4.92;91.24;98680.70;437299;1251;107982;-39
2024/03/13 17:58:31;;;;;;;117.90;53.30;;;;;;;4.68;91.02;98684.71;437474;1250;99227;-38
2024/03/13 18:08:36;;;;;;;143.40;62.90;;;;;;;4.49;91.19;98690.12;437574;1250;111550;-39
2024/03/13 18:18:40;;;;;;;153.50;67.40;;;;;;;4.30;91.65;98696.33;437441;1251;108362;-39
2024/03/13 18:28:45;;;;;;;170.60;78.40;;;;;;;4.04;91.63;98687.02;437876;1250;100063;-39
2024/03/13 18:38:50;;;;;;;139.00;70.70;;;;;;;3.94;92.09;98690.86;437797;1247;99209;-39
2024/03/13 18:48:56;;;;;;;129.00;62.80;;;;;;;3.97;92.16;98704.81;438430;1251;107715;-39
2024/03/13 18:59:01;;;;;;;162.00;78.30;;;;;;;4.09;92.33;98708.45;437436;1252;98798;-40
2024/03/13 19:09:07;;;;;;;187.30;83.20;;;;;;;4.14;92.52;98702.77;437766;1250;108488;-40
2024/03/13 19:19:12;;;;;;;208.50;94.10;;;;;;;4.06;92.98;98698.92;438502;1251;99115;-39
2024/03/13 19:29:16;;;;;;;142.70;71.80;;;;;;;4.17;93.18;98710.25;437531;1251;110782;-38
2024/03/13 19:39:23;;;;;;;193.60;90.60;;;;;;;4.28;93.26;98709.11;438694;1248;108367;-40
2024/03/13 20:29:42;;;;;;;133.10;72.50;;;;;;;4.80;94.14;98727.41;439134;1250;107050;-39
2024/03/13 20:39:45;;;;;;;129.60;68.30;;;;;;;4.92;94.39;98717.33;437925;1251;99221;-39
2024/03/13 20:49:50;;;;;;;141.60;72.40;;;;;;;5.03;94.81;98710.48;437449;1260;107219;-39
2024/03/13 20:59:55;;;;;;;144.50;71.00;;;;;;;5.13;95.21;98702.99;437438;1248;99195;-40
2024/03/13 21:10:00;;;;;;;121.40;59.70;;;;;;;5.08;94.72;98698.77;437541;1259;110992;-40
2024/03/13 21:50:19;;;;;;;241.70;113.30;;;;;;;5.25;95.72;98694.84;438414;1248;99378;-39
2024/03/13 22:00:24;;;;;;;185.40;98.20;;;;;;;5.26;95.64;98691.46;438497;1250;112119;-40
2024/03/13 22:10:29;;;;;;;183.10;95.90;;;;;;;5.30;95.69;98692.23;438227;1251;108657;-39
2024/03/13 22:20:34;;;;;;;177.90;91.70;;;;;;;5.35;95.81;98682.05;437930;1254;98766;-40
2024/03/13 22:30:38;;;;;;;213.80;103.30;;;;;;;5.45;96.20;98686.90;438472;1250;108389;-40
2024/03/13 22:40:43;;;;;;;251.90;122.30;;;;;;;5.30;96.01;98679.90;437005;1248;99202;-39
2024/03/13 22:50:48;;;;;;;213.90;108.40;;;;;;;5.32;96.21;98678.81;437032;1250;111181;-40
2024/03/13 23:11:00;;;;;;;202.60;102.20;;;;;;;5.51;96.35;98682.09;437057;1251;99817;-40
2024/03/13 23:21:05;;;;;;;185.30;90.00;;;;;;;5.44;96.19;98690.56;437210;1251;107787;-40
2024/03/13 23:31:11;;;;;;;212.60;102.40;;;;;;;5.31;96.45;98679.30;437261;1247;99238;-40
2024/03/13 23:41:16;;;;;;;176.60;85.50;;;;;;;5.25;96.32;98680.36;437072;1258;111966;-39
2024/03/13 23:51:23;;;;;;;159.00;81.30;;;;;;;5.24;96.49;98685.40;437128;1248;108420;-39
